Terminal Aerodrome Forecast
Issued by NWS

Home | Current Version | Previous Version | Text Only | Print | Product List | Glossary On
Versions: 1 2 3 4 5 6 7 8 9 10 11 12 13 14
000
FTUS45 KPIH 292320
TAFSUN
TAF
KSUN 292320Z 3000/3024 28011KT P6SM SKC
     FM300300 32011G20KT 6SM FU SKC
     FM301600 15010KT P6SM VCTS FEW080 SCT100CB
     FM302000 25010G20KT P6SM FEW100
      AMD LTD TO CLD VIS AND WIND 3005/3013=

USA.gov is the U.S. government's official web portal to all federal, state and local government web resources and services.